Time;durP1;ratioP1;P1;durP2;ratioP2;P2;SDS_P1;SDS_P2;PMS_P1;PMS_P2;Temp;Humidity;BMP_temperature;BMP_pressure;BME280_temperature;BME280_humidity;BME280_pressure;Samples;Min_cycle;Max_cycle;Signal;HPM_P1;HPM_P2
2023/07/31 00:01:35;;;;;;;4.93;2.90;;;;;;;19.81;75.74;93633.09;5063548;28;20029;-81
2023/07/31 00:04:00;;;;;;;4.68;2.38;;;;;;;19.85;75.64;93627.72;5063245;28;20427;-81
2023/07/31 00:06:26;;;;;;;5.00;2.85;;;;;;;19.84;77.23;93629.66;5063153;28;20258;-81
2023/07/31 00:08:51;;;;;;;3.63;2.40;;;;;;;19.81;77.64;93632.31;5064064;28;20109;-81
2023/07/31 00:11:35;;;;;;;7.32;3.47;;;;;;;19.72;77.83;93629.97;5064313;28;20327;-81
2023/07/31 00:14:00;;;;;;;5.32;2.78;;;;;;;19.69;78.01;93630.66;5064268;28;20037;-81
2023/07/31 00:16:29;;;;;;;6.78;3.38;;;;;;;19.61;79.42;93631.75;5064200;28;20264;-80
2023/07/31 00:18:58;;;;;;;5.10;2.72;;;;;;;19.56;79.01;93637.50;5063483;28;20020;-81
2023/07/31 00:21:23;;;;;;;4.97;3.25;;;;;;;19.44;77.31;93625.84;5063324;28;20031;-79
2023/07/31 00:23:49;;;;;;;3.83;2.60;;;;;;;19.42;76.83;93627.38;5062422;28;20016;-80
2023/07/31 00:26:14;;;;;;;6.13;3.35;;;;;;;19.44;77.31;93620.44;5063463;28;20028;-80
2023/07/31 00:28:40;;;;;;;6.78;3.30;;;;;;;19.42;78.23;93620.06;5063780;28;20028;-79
2023/07/31 00:31:05;;;;;;;6.45;2.67;;;;;;;19.44;77.87;93616.97;5063888;28;20021;-79
2023/07/31 00:33:31;;;;;;;4.57;2.97;;;;;;;19.41;78.26;93607.69;5063693;28;20025;-79
2023/07/31 00:35:57;;;;;;;4.75;3.35;;;;;;;19.46;78.21;93590.34;5063841;28;20214;-79
2023/07/31 00:38:22;;;;;;;4.15;3.05;;;;;;;19.48;78.18;93588.06;5062443;28;20027;-80
2023/07/31 00:40:47;;;;;;;4.72;3.00;;;;;;;19.48;78.18;93595.38;5063789;28;20103;-80
2023/07/31 00:43:13;;;;;;;4.88;3.40;;;;;;;19.43;79.94;93593.78;5063368;28;20023;-78
2023/07/31 00:45:39;;;;;;;5.65;3.90;;;;;;;19.49;80.05;93586.13;5063739;28;20056;-79
2023/07/31 00:48:06;;;;;;;6.45;3.38;;;;;;;19.43;80.43;93593.78;5063619;28;20299;-78
2023/07/31 00:50:32;;;;;;;6.97;4.03;;;;;;;19.33;80.44;93600.66;5063426;28;20047;-78
2023/07/31 00:52:58;;;;;;;6.75;4.30;;;;;;;19.25;81.18;93609.88;5063143;28;20036;-78
2023/07/31 00:55:24;;;;;;;5.18;4.22;;;;;;;19.26;80.10;93599.84;5062280;28;20082;-78
2023/07/31 00:57:51;;;;;;;7.15;5.32;;;;;;;19.26;80.35;93606.03;5063355;28;20036;-78
2023/07/31 01:00:17;;;;;;;10.57;5.60;;;;;;;19.17;80.55;93606.34;5063139;28;20021;-77
2023/07/31 01:02:42;;;;;;;8.50;6.22;;;;;;;19.10;80.83;93594.72;5063246;28;20092;-78
2023/07/31 01:05:08;;;;;;;8.70;6.70;;;;;;;19.04;81.64;93594.25;5063312;28;20024;-78
2023/07/31 01:07:36;;;;;;;12.55;7.05;;;;;;;18.99;82.25;93595.38;5063197;28;20135;-78
2023/07/31 01:10:15;;;;;;;9.63;7.78;;;;;;;18.96;82.50;93590.72;5063079;28;20024;-78
2023/07/31 01:12:41;;;;;;;10.52;7.88;;;;;;;18.98;82.60;93601.16;5063129;28;20039;-78
2023/07/31 01:15:12;;;;;;;11.95;9.35;;;;;;;18.88;82.95;93593.72;5063160;28;20032;-78
2023/07/31 01:17:38;;;;;;;14.52;11.40;;;;;;;18.85;83.56;93576.38;5063190;28;20025;-78
2023/07/31 01:20:08;;;;;;;15.27;11.30;;;;;;;18.92;84.23;93583.75;5062945;28;20036;-78
2023/07/31 01:22:42;;;;;;;17.67;13.18;;;;;;;18.81;84.31;93589.06;5062522;28;20036;-78
2023/07/31 01:25:22;;;;;;;17.77;14.27;;;;;;;18.79;84.90;93585.94;5063054;28;20021;-78
2023/07/31 01:28:04;;;;;;;17.88;14.63;;;;;;;18.75;84.87;93588.56;5062793;28;20071;-78
2023/07/31 01:30:35;;;;;;;17.65;14.38;;;;;;;18.78;85.36;93595.16;5062893;28;20024;-78
2023/07/31 01:33:06;;;;;;;21.85;15.65;;;;;;;18.74;85.39;93578.91;5062592;28;20121;-78
2023/07/31 01:35:33;;;;;;;19.38;15.55;;;;;;;18.77;nan;93582.81;5062596;28;20020;-78
2023/07/31 01:37:59;;;;;;;19.50;15.93;;;;;;;18.77;85.73;93588.22;5062788;28;20035;-78
2023/07/31 01:40:24;;;;;;;20.17;15.73;;;;;;;18.74;85.98;93578.16;5062497;28;20226;-81
2023/07/31 01:42:50;;;;;;;20.65;17.13;;;;;;;18.69;85.98;93581.19;5062590;28;20087;-81
2023/07/31 01:45:15;;;;;;;20.85;16.75;;;;;;;18.72;85.87;93575.81;5062581;28;20027;-80
2023/07/31 01:47:41;;;;;;;25.42;18.08;;;;;;;18.76;86.46;93571.22;5062704;28;20063;-81
2023/07/31 01:50:06;;;;;;;32.30;20.92;;;;;;;18.72;87.72;93575.81;5062647;28;20350;-79
2023/07/31 01:52:32;;;;;;;25.75;19.60;;;;;;;18.77;87.01;93572.00;5062358;28;20041;-78
2023/07/31 01:54:57;;;;;;;24.33;19.23;;;;;;;18.72;86.88;93585.84;5062486;28;20059;-78
2023/07/31 01:57:23;;;;;;;23.77;19.52;;;;;;;18.70;87.09;93580.03;5062396;28;20029;-81
2023/07/31 01:59:49;;;;;;;27.75;20.38;;;;;;;18.73;87.37;93580.06;5062419;28;20037;-80
2023/07/31 02:02:14;;;;;;;25.77;19.77;;;;;;;18.78;87.34;93578.94;5062542;28;20021;-80
2023/07/31 02:04:40;;;;;;;25.92;20.73;;;;;;;18.72;87.33;93575.03;5062830;28;20024;-79
2023/07/31 02:07:06;;;;;;;25.00;20.40;;;;;;;18.73;87.30;93590.09;5062522;28;20084;-79
2023/07/31 02:09:31;;;;;;;25.73;20.90;;;;;;;18.74;87.39;93591.66;5062132;28;20029;-79
2023/07/31 02:11:57;;;;;;;26.35;20.83;;;;;;;18.77;87.52;93593.63;5062355;28;20067;-79
2023/07/31 02:14:22;;;;;;;30.77;21.60;;;;;;;18.81;87.34;93597.16;5061094;28;20025;-79
2023/07/31 02:16:47;;;;;;;27.45;20.55;;;;;;;18.83;87.43;93608.34;5062345;28;20193;-79
2023/07/31 02:19:13;;;;;;;25.55;19.20;;;;;;;18.84;86.91;93601.78;5062187;28;20025;-80
2023/07/31 02:21:39;;;;;;;25.92;20.17;;;;;;;18.88;86.81;93599.91;5062489;28;20195;-80
2023/07/31 02:24:04;;;;;;;28.15;20.75;;;;;;;18.94;86.98;93598.41;5062278;28;20049;-80
2023/07/31 02:26:30;;;;;;;24.02;19.35;;;;;;;18.95;87.05;93593.78;5062158;28;20056;-80
2023/07/31 02:28:55;;;;;;;24.48;19.30;;;;;;;18.96;86.88;93593.41;5062331;28;20055;-80
2023/07/31 02:31:21;;;;;;;26.20;20.05;;;;;;;18.99;86.65;93598.09;5060796;28;20025;-80
2023/07/31 02:33:46;;;;;;;24.10;18.95;;;;;;;19.03;85.75;93585.41;5062156;28;20052;-80
2023/07/31 02:36:11;;;;;;;27.42;18.88;;;;;;;19.07;85.39;93598.94;5064690;28;20029;-79
2023/07/31 02:38:37;;;;;;;23.30;19.17;;;;;;;19.11;84.60;93586.25;5065917;28;20074;-80
2023/07/31 02:41:02;;;;;;;24.83;18.95;;;;;;;19.20;84.18;93585.91;5065867;28;20028;-80
2023/07/31 02:43:28;;;;;;;25.90;19.77;;;;;;;19.17;84.08;93575.84;5064836;28;20017;-80
2023/07/31 02:45:53;;;;;;;23.23;18.90;;;;;;;19.17;83.96;93590.16;5065902;28;20028;-80
2023/07/31 02:48:19;;;;;;;26.00;21.00;;;;;;;19.22;83.31;93597.13;5065806;28;20025;-80
2023/07/31 02:50:45;;;;;;;28.95;20.35;;;;;;;19.26;83.82;93599.84;5065963;28;20028;-77
2023/07/31 02:53:10;;;;;;;28.30;20.88;;;;;;;19.27;83.57;93610.28;5065321;28;20062;-78
2023/07/31 02:55:36;;;;;;;21.95;17.42;;;;;;;19.24;83.44;93611.03;5065955;28;20048;-78
2023/07/31 02:58:02;;;;;;;23.33;19.15;;;;;;;19.26;83.23;93618.78;5065588;28;20253;-79
2023/07/31 03:00:27;;;;;;;26.75;20.92;;;;;;;19.27;83.75;93625.72;5065722;28;20028;-79
2023/07/31 03:02:53;;;;;;;25.13;19.67;;;;;;;19.28;83.92;93622.66;5065410;28;20036;-79
2023/07/31 03:05:18;;;;;;;30.42;20.45;;;;;;;19.33;83.69;93621.50;5065595;28;20035;-79
2023/07/31 03:07:44;;;;;;;21.98;17.65;;;;;;;19.39;82.71;93618.09;5065489;28;20027;-79
2023/07/31 03:10:09;;;;;;;21.20;17.85;;;;;;;19.42;82.66;93622.75;5065531;28;20024;-79
2023/07/31 03:12:35;;;;;;;23.98;19.00;;;;;;;19.37;83.04;93614.97;5065337;28;20324;-79
2023/07/31 03:15:00;;;;;;;23.45;18.42;;;;;;;19.40;83.34;93625.06;5065343;28;20045;-79
2023/07/31 03:17:26;;;;;;;23.98;18.58;;;;;;;19.38;83.18;93627.34;5065282;28;20021;-79
2023/07/31 03:19:51;;;;;;;26.98;18.63;;;;;;;19.43;82.72;93634.34;5065298;28;20017;-80
2023/07/31 03:22:17;;;;;;;27.30;19.27;;;;;;;19.46;82.08;93633.59;5065078;28;20028;-80
2023/07/31 03:24:42;;;;;;;29.77;20.50;;;;;;;19.49;82.54;93632.06;5065058;28;20095;-80
2023/07/31 03:27:07;;;;;;;24.40;19.10;;;;;;;19.49;82.55;93632.84;5065332;28;20021;-81
2023/07/31 03:29:33;;;;;;;26.52;20.33;;;;;;;19.52;81.94;93636.72;5065033;28;20207;-80
2023/07/31 03:31:59;;;;;;;24.33;18.67;;;;;;;19.49;82.33;93640.19;5065159;28;20028;-80
2023/07/31 03:34:24;;;;;;;24.92;18.88;;;;;;;19.48;82.57;93636.69;5064997;28;20031;-80
2023/07/31 03:36:50;;;;;;;25.83;18.90;;;;;;;19.52;82.28;93636.72;5065014;28;20084;-77
2023/07/31 03:39:15;;;;;;;26.35;18.77;;;;;;;19.50;81.85;93644.41;5064854;28;20025;-79
2023/07/31 03:41:40;;;;;;;26.65;19.67;;;;;;;19.47;81.93;93640.53;5064875;28;20323;-79
2023/07/31 03:44:06;;;;;;;26.42;19.73;;;;;;;19.43;81.79;93651.31;5065065;28;20020;-78
2023/07/31 03:46:31;;;;;;;26.40;20.10;;;;;;;19.48;81.88;93652.13;5064557;28;20020;-79
2023/07/31 03:48:57;;;;;;;28.50;21.50;;;;;;;19.50;82.17;93644.41;5064655;28;20017;-79
2023/07/31 03:51:22;;;;;;;30.10;21.85;;;;;;;19.51;81.98;93659.50;5064675;28;20021;-79
2023/07/31 03:53:48;;;;;;;24.45;18.80;;;;;;;19.50;81.25;93660.63;5064199;28;20266;-79
2023/07/31 03:56:13;;;;;;;26.73;19.88;;;;;;;19.49;81.33;93654.47;5064654;28;20082;-78
2023/07/31 03:58:39;;;;;;;28.88;20.85;;;;;;;19.45;81.66;93664.47;5064715;28;20025;-79
2023/07/31 04:01:04;;;;;;;26.95;20.30;;;;;;;19.43;82.26;93667.53;5064468;28;20025;-80
2023/07/31 04:03:30;;;;;;;30.67;20.85;;;;;;;19.39;82.32;93655.16;5064440;28;20025;-79
2023/07/31 04:05:56;;;;;;;27.33;20.75;;;;;;;19.41;82.32;93661.72;5064764;28;20092;-78
2023/07/31 04:08:22;;;;;;;29.85;21.45;;;;;;;19.41;82.03;93659.03;5063301;28;20020;-79
2023/07/31 04:10:48;;;;;;;29.73;21.15;;;;;;;19.42;81.91;93663.28;5064597;28;20013;-80
2023/07/31 04:13:14;;;;;;;27.13;19.67;;;;;;;19.45;81.41;93667.94;5064520;28;20021;-78
2023/07/31 04:15:39;;;;;;;25.50;19.13;;;;;;;19.41;80.97;93669.84;5064103;28;20334;-79
2023/07/31 04:18:05;;;;;;;25.00;19.63;;;;;;;19.42;81.00;93670.63;5064056;28;20227;-79
2023/07/31 04:20:31;;;;;;;28.17;19.45;;;;;;;19.49;80.80;93673.38;5064144;28;20032;-79
2023/07/31 04:22:56;;;;;;;27.13;21.00;;;;;;;19.48;80.48;93668.34;5064116;28;20020;-79
2023/07/31 04:25:22;;;;;;;28.92;19.90;;;;;;;19.55;80.46;93669.19;5064058;28;20200;-78
2023/07/31 04:27:47;;;;;;;30.30;18.85;;;;;;;19.54;79.92;93674.94;5063921;28;20017;-78
2023/07/31 04:30:13;;;;;;;25.35;18.33;;;;;;;19.55;80.04;93668.41;5064350;28;20021;-78
2023/07/31 04:32:38;;;;;;;24.85;18.90;;;;;;;19.57;79.36;93677.69;5064318;28;20349;-79
2023/07/31 04:35:08;;;;;;;34.13;19.70;;;;;;;19.57;79.53;93669.59;5064178;28;20043;-80
2023/07/31 04:37:39;;;;;;;23.60;17.60;;;;;;;19.49;78.66;93669.91;5063935;28;20032;-81
2023/07/31 04:40:05;;;;;;;23.35;16.23;;;;;;;19.53;78.95;93684.22;5063839;28;20021;-80
2023/07/31 04:42:31;;;;;;;21.15;15.45;;;;;;;19.49;78.55;93676.06;5063824;28;20035;-80
2023/07/31 04:44:56;;;;;;;25.85;16.00;;;;;;;19.55;79.07;93680.00;5063805;28;20246;-81
2023/07/31 04:47:22;;;;;;;21.90;14.98;;;;;;;19.64;77.34;93660.75;5063684;28;20027;-80
2023/07/31 04:49:47;;;;;;;18.50;14.15;;;;;;;19.61;77.51;93664.97;5063425;28;20311;-80
2023/07/31 04:52:13;;;;;;;22.17;14.43;;;;;;;19.64;77.16;93661.53;5063628;28;20090;-79
2023/07/31 04:54:38;;;;;;;19.58;14.85;;;;;;;19.62;77.22;93668.44;5063520;28;20231;-80
2023/07/31 04:57:06;;;;;;;18.42;13.88;;;;;;;19.63;77.41;93665.38;5063275;28;20020;-79
2023/07/31 04:59:32;;;;;;;17.58;13.77;;;;;;;19.72;76.86;93670.50;5062831;28;20025;-80
2023/07/31 05:01:57;;;;;;;21.58;15.73;;;;;;;19.82;76.87;93671.72;5062039;28;20067;-78
2023/07/31 05:04:23;;;;;;;19.77;15.07;;;;;;;19.98;76.38;93674.16;5063133;28;20211;-79
2023/07/31 05:06:51;;;;;;;18.17;14.05;;;;;;;20.00;76.11;93656.38;5063353;28;20028;-82
2023/07/31 05:09:17;;;;;;;22.33;15.20;;;;;;;20.10;76.13;93664.94;5063170;28;20062;-79
2023/07/31 05:11:43;;;;;;;19.77;14.80;;;;;;;20.21;75.56;93671.19;5063067;28;20257;-79
2023/07/31 05:14:09;;;;;;;19.33;13.95;;;;;;;20.23;74.91;93671.56;5061891;28;20032;-80
2023/07/31 05:16:34;;;;;;;18.27;13.38;;;;;;;20.27;74.97;93655.38;5063002;28;20062;-81
2023/07/31 05:19:00;;;;;;;16.83;12.68;;;;;;;20.26;74.38;93660.00;5063137;28;20020;-79
2023/07/31 05:21:25;;;;;;;16.52;12.75;;;;;;;20.26;73.74;93661.94;5063001;28;20029;-79
2023/07/31 05:23:51;;;;;;;16.65;12.30;;;;;;;20.18;74.12;93664.59;5062737;28;20029;-79
2023/07/31 05:26:16;;;;;;;15.15;12.30;;;;;;;20.21;74.64;93658.44;5062953;28;20040;-77
2023/07/31 05:28:41;;;;;;;17.33;13.23;;;;;;;20.26;74.50;93662.72;5062621;28;20303;-76
2023/07/31 05:31:07;;;;;;;14.50;11.48;;;;;;;20.30;73.88;93665.44;5062779;28;20315;-77
2023/07/31 05:33:33;;;;;;;16.45;12.07;;;;;;;20.38;73.56;93669.72;5062721;28;20024;-77
2023/07/31 05:35:59;;;;;;;17.15;12.02;;;;;;;20.53;73.24;93668.63;5062900;28;20252;-77
2023/07/31 05:38:25;;;;;;;15.73;10.63;;;;;;;20.55;72.75;93674.44;5062563;28;20361;-77
2023/07/31 05:40:50;;;;;;;15.65;10.82;;;;;;;20.55;72.82;93671.72;5061705;28;20025;-76
2023/07/31 05:43:15;;;;;;;15.18;11.07;;;;;;;20.66;72.69;93663.69;5062613;28;20036;-76
2023/07/31 05:46:11;;;;;;;13.18;10.75;;;;;;;20.70;72.07;93663.69;5062471;28;20082;-79
2023/07/31 05:49:04;;;;;;;15.43;11.48;;;;;;;20.78;73.15;93657.13;5040872;28;20247;-81
2023/07/31 05:51:29;;;;;;;15.32;11.02;;;;;;;20.92;72.95;93654.47;5062751;28;20278;-83
2023/07/31 05:53:54;;;;;;;13.88;10.73;;;;;;;20.99;71.90;93659.91;5062547;28;20091;-80
2023/07/31 05:56:34;;;;;;;11.63;9.30;;;;;;;21.10;70.45;93659.16;5061528;28;20020;-81
2023/07/31 05:59:32;;;;;;;;;;;;;;;;;;;;;
2023/07/31 06:02:09;;;;;;;10.75;8.25;;;;;;;21.10;68.89;93667.28;5063466;28;20079;-81
2023/07/31 06:05:12;;;;;;;12.35;7.38;;;;;;;21.21;67.50;93668.84;5062795;28;20019;-81
2023/07/31 06:08:06;;;;;;;9.88;8.25;;;;;;;21.15;67.03;93672.34;5060436;28;20033;-81
2023/07/31 06:10:32;;;;;;;13.93;7.78;;;;;;;21.16;68.00;93673.88;5065799;28;20074;-76
2023/07/31 06:13:00;;;;;;;10.55;7.18;;;;;;;21.22;68.26;93673.09;5066669;28;20219;-75
2023/07/31 06:15:48;;;;;;;9.85;6.72;;;;;;;21.33;67.44;93677.75;5066748;28;20016;-79
2023/07/31 06:18:14;;;;;;;8.50;6.15;;;;;;;21.56;65.90;93680.16;5061291;28;20077;-75
2023/07/31 06:20:42;;;;;;;9.27;6.00;;;;;;;21.64;65.73;93681.69;5065288;28;20028;-78
2023/07/31 06:23:08;;;;;;;7.93;4.85;;;;;;;21.46;62.49;93672.78;5065922;28;20389;-84
2023/07/31 06:26:22;;;;;;;7.18;5.05;;;;;;;21.29;64.09;93677.78;5066171;28;20025;-82
2023/07/31 06:29:40;;;;;;;;;;;;;;;;;;;;;
2023/07/31 06:32:07;;;;;;;9.93;5.00;;;;;;;21.39;63.49;93676.22;5042348;28;20405;-82
2023/07/31 06:34:32;;;;;;;9.13;4.05;;;;;;;21.48;62.49;93678.59;5060694;28;20041;-83
2023/07/31 06:37:23;;;;;;;8.55;3.88;;;;;;;21.47;62.37;93668.91;5063100;28;20040;-82
2023/07/31 06:39:52;;;;;;;9.07;3.50;;;;;;;21.39;61.33;93671.59;5064410;28;20028;-82
2023/07/31 06:43:07;;;;;;;5.57;3.25;;;;;;;21.50;61.28;93666.19;5064610;28;20029;-83
2023/07/31 06:45:36;;;;;;;9.93;4.22;;;;;;;21.49;61.67;93669.28;5059841;28;20291;-82
2023/07/31 06:48:03;;;;;;;6.75;4.15;;;;;;;21.43;62.33;93682.44;5066206;28;20045;-82
2023/07/31 06:50:50;;;;;;;6.40;3.85;;;;;;;21.21;61.93;93670.81;5064766;28;20227;-83
2023/07/31 06:56:21;;;;;;;6.15;3.95;;;;;;;21.16;62.97;93685.47;5065131;28;20280;-82
2023/07/31 06:58:49;;;;;;;6.20;3.72;;;;;;;21.13;63.10;93696.34;5065932;28;20083;-82
2023/07/31 07:01:22;;;;;;;4.38;3.05;;;;;;;21.14;63.27;93687.81;5065864;28;20041;-82
2023/07/31 07:03:50;;;;;;;5.28;3.15;;;;;;;21.04;64.29;93691.25;5065667;28;20080;-82
2023/07/31 07:06:16;;;;;;;4.90;3.55;;;;;;;21.00;64.35;93683.16;5065596;28;20025;-83
2023/07/31 07:08:45;;;;;;;6.43;3.40;;;;;;;21.07;64.25;93678.91;5065751;28;20038;-82
2023/07/31 07:11:10;;;;;;;7.53;3.60;;;;;;;21.09;63.03;93688.19;5065795;28;20029;-82
2023/07/31 07:13:38;;;;;;;3.92;2.47;;;;;;;21.21;63.27;93673.50;5065422;28;20040;-82
2023/07/31 07:16:10;;;;;;;9.82;3.20;;;;;;;21.35;62.21;93670.03;5065471;28;20039;-81
2023/07/31 07:18:35;;;;;;;7.43;4.55;;;;;;;21.38;60.65;93690.94;5065333;28;20084;-82
2023/07/31 07:21:02;;;;;;;4.35;3.15;;;;;;;21.22;61.46;93683.94;5064468;28;20373;-82
2023/07/31 07:23:27;;;;;;;4.47;3.20;;;;;;;21.16;61.03;93690.13;5065083;28;20088;-82
2023/07/31 07:25:53;;;;;;;7.57;4.55;;;;;;;21.21;62.06;93670.81;5064026;28;20377;-82
2023/07/31 07:28:18;;;;;;;8.88;3.38;;;;;;;21.35;61.00;93684.38;5065096;28;20031;-82
2023/07/31 07:30:43;;;;;;;5.30;3.10;;;;;;;21.31;60.21;93675.47;5064906;28;20029;-82
2023/07/31 07:33:09;;;;;;;10.88;2.88;;;;;;;21.32;60.84;93681.66;5063825;28;20104;-83
2023/07/31 07:35:35;;;;;;;6.10;2.05;;;;;;;21.28;61.02;93678.16;5065010;28;20272;-82
2023/07/31 07:38:03;;;;;;;3.42;2.20;;;;;;;21.35;61.21;93689.78;5064932;28;20078;-82
2023/07/31 07:40:28;;;;;;;5.70;3.10;;;;;;;21.42;60.07;93689.03;5064942;28;20135;-82
2023/07/31 07:42:54;;;;;;;5.68;2.30;;;;;;;21.53;59.84;93702.59;5063515;28;20017;-81
2023/07/31 07:45:19;;;;;;;7.30;2.30;;;;;;;21.68;59.40;93676.28;5064913;28;20027;-82
2023/07/31 07:47:45;;;;;;;3.70;2.72;;;;;;;21.72;59.75;93699.53;5064798;28;20024;-81
2023/07/31 07:50:10;;;;;;;7.65;2.40;;;;;;;21.61;60.16;93685.19;5064984;28;20095;-81
2023/07/31 07:52:36;;;;;;;3.65;2.47;;;;;;;21.62;60.14;93692.16;5064449;28;20339;-81
2023/07/31 07:55:01;;;;;;;4.32;2.42;;;;;;;21.63;59.46;93697.19;5064605;28;20104;-83
2023/07/31 07:57:27;;;;;;;9.75;2.42;;;;;;;21.76;59.20;93699.53;5064395;28;20035;-80
2023/07/31 07:59:53;;;;;;;4.63;2.67;;;;;;;21.86;59.05;93706.09;5064441;28;20020;-79
2023/07/31 08:02:18;;;;;;;7.80;2.42;;;;;;;21.95;59.09;93711.91;5064374;28;20270;-79
2023/07/31 08:04:44;;;;;;;3.50;2.50;;;;;;;22.01;58.83;93704.94;5064432;28;20020;-79
2023/07/31 08:07:12;;;;;;;3.50;2.33;;;;;;;21.87;59.19;93704.94;5064381;28;20032;-80
2023/07/31 08:09:38;;;;;;;3.50;2.28;;;;;;;21.96;59.41;93699.88;5063888;28;20082;-80
2023/07/31 08:12:04;;;;;;;3.78;2.20;;;;;;;22.15;58.86;93693.28;5064125;28;20223;-80
2023/07/31 08:14:29;;;;;;;2.72;1.95;;;;;;;22.13;57.09;93690.97;5063939;28;20036;-81
2023/07/31 08:16:55;;;;;;;4.50;2.05;;;;;;;22.23;57.50;93703.75;5064206;28;20032;-81
2023/07/31 08:19:21;;;;;;;5.15;2.15;;;;;;;22.40;56.83;93687.81;5063916;28;20028;-80
2023/07/31 08:21:46;;;;;;;5.03;2.95;;;;;;;22.56;56.83;93690.88;5062693;28;20021;-80
2023/07/31 08:24:11;;;;;;;6.78;2.40;;;;;;;22.77;54.97;93697.38;5063955;28;20311;-81
2023/07/31 08:26:37;;;;;;;4.55;2.28;;;;;;;22.73;54.29;93704.78;5064164;28;20033;-81
2023/07/31 08:29:03;;;;;;;6.75;2.28;;;;;;;22.78;55.33;93699.72;5063999;28;20092;-81
2023/07/31 08:31:29;;;;;;;5.35;2.75;;;;;;;22.96;55.02;93696.94;5063808;28;20036;-81
2023/07/31 08:33:54;;;;;;;4.13;2.53;;;;;;;23.18;53.58;93700.34;5062480;28;20025;-81
2023/07/31 08:36:20;;;;;;;4.85;2.10;;;;;;;23.28;52.97;93689.78;5063935;28;20135;-81
2023/07/31 08:38:45;;;;;;;6.95;2.30;;;;;;;23.22;52.50;93697.59;5063655;28;20048;-81
2023/07/31 08:41:13;;;;;;;4.88;2.35;;;;;;;23.27;53.31;93694.47;5063534;28;20031;-81
2023/07/31 08:43:39;;;;;;;3.65;2.15;;;;;;;23.37;53.14;93703.72;5063612;28;20028;-80
2023/07/31 08:46:04;;;;;;;7.15;2.58;;;;;;;23.44;52.68;93692.78;5063549;28;20281;-80
2023/07/31 08:48:31;;;;;;;4.32;2.20;;;;;;;23.48;52.81;93703.66;5062241;28;20028;-79
2023/07/31 08:50:57;;;;;;;3.78;2.00;;;;;;;23.41;51.55;93699.03;5063474;28;20096;-81
2023/07/31 08:53:22;;;;;;;6.65;2.40;;;;;;;23.38;52.00;93708.75;5063164;28;20044;-81
2023/07/31 08:55:49;;;;;;;4.07;2.60;;;;;;;23.29;52.48;93708.44;5063325;28;20029;-81
2023/07/31 08:58:15;;;;;;;3.40;2.30;;;;;;;23.22;52.65;93709.25;5063362;28;20017;-81
2023/07/31 09:00:44;;;;;;;5.50;2.35;;;;;;;23.07;51.83;93724.06;5063611;28;20021;-80
2023/07/31 09:03:15;;;;;;;6.85;2.70;;;;;;;23.10;51.90;93711.63;5063376;28;20020;-79
2023/07/31 09:05:44;;;;;;;3.20;2.20;;;;;;;23.17;51.82;93706.94;5063692;28;20047;-80
2023/07/31 09:08:11;;;;;;;3.08;1.90;;;;;;;23.15;51.77;93697.63;5063430;28;20092;-85
2023/07/31 09:10:42;;;;;;;7.25;1.85;;;;;;;23.29;51.83;93691.34;5063315;28;20055;-75
2023/07/31 09:13:08;;;;;;;5.40;2.22;;;;;;;23.39;50.80;93690.50;5062220;28;20045;-76
2023/07/31 09:15:34;;;;;;;3.88;2.13;;;;;;;23.61;50.39;93707.44;5063284;28;20037;-76
2023/07/31 09:18:01;;;;;;;6.15;2.03;;;;;;;23.73;50.86;93682.50;5063106;28;20029;-76
2023/07/31 09:20:27;;;;;;;3.47;2.42;;;;;;;23.71;50.18;93690.28;5063180;28;20032;-76
2023/07/31 09:22:52;;;;;;;4.93;2.10;;;;;;;23.82;50.59;93692.94;5063043;28;20025;-76
2023/07/31 09:25:18;;;;;;;5.40;2.00;;;;;;;23.94;49.15;93706.06;5063207;28;20029;-76
2023/07/31 09:27:52;;;;;;;5.75;2.40;;;;;;;23.97;48.99;93690.84;5062894;28;20339;-76
2023/07/31 09:30:18;;;;;;;7.43;2.33;;;;;;;24.05;48.86;93686.91;5063047;28;20045;-76
2023/07/31 09:32:45;;;;;;;8.00;2.50;;;;;;;24.14;49.26;93672.81;5062770;28;20033;-76
2023/07/31 09:35:13;;;;;;;4.45;2.30;;;;;;;24.15;48.61;93679.81;5063256;28;20072;-76
2023/07/31 09:37:38;;;;;;;3.35;2.30;;;;;;;24.16;48.91;93668.53;5062988;28;20028;-76
2023/07/31 09:40:04;;;;;;;4.28;2.20;;;;;;;24.18;48.69;93671.59;5062770;28;20037;-75
2023/07/31 09:42:31;;;;;;;3.33;2.35;;;;;;;24.27;49.18;93659.47;5062614;28;20025;-76
2023/07/31 09:45:08;;;;;;;3.40;2.03;;;;;;;24.29;49.78;93668.00;5062431;28;20021;-76
2023/07/31 09:47:34;;;;;;;10.10;1.88;;;;;;;24.38;50.00;93660.09;5062751;28;20025;-76
2023/07/31 09:49:59;;;;;;;5.68;2.17;;;;;;;24.46;48.73;93653.41;5062688;28;20028;-76
2023/07/31 09:52:27;;;;;;;4.38;2.55;;;;;;;24.42;47.67;93653.47;5062360;28;20045;-76
2023/07/31 09:54:53;;;;;;;4.80;2.70;;;;;;;24.57;48.57;93650.59;5062568;28;20115;-76
2023/07/31 09:57:22;;;;;;;3.95;2.05;;;;;;;24.59;48.23;93657.19;5061381;28;20106;-76
2023/07/31 09:59:49;;;;;;;8.48;2.30;;;;;;;24.54;47.79;93656.84;5060942;28;20017;-76
2023/07/31 10:02:20;;;;;;;6.43;2.03;;;;;;;24.60;47.86;93649.78;5062669;28;20012;-76
2023/07/31 10:04:49;;;;;;;7.53;2.55;;;;;;;24.75;47.96;93642.97;5062354;28;20039;-76
2023/07/31 10:07:17;;;;;;;3.30;1.92;;;;;;;24.83;45.96;93649.09;5062561;28;20029;-77
2023/07/31 10:09:43;;;;;;;7.22;2.10;;;;;;;24.78;47.42;93655.00;5062233;28;20318;-77
2023/07/31 10:12:11;;;;;;;3.67;2.05;;;;;;;24.83;46.09;93652.59;5062436;28;20055;-77
2023/07/31 10:14:38;;;;;;;3.65;2.20;;;;;;;24.89;46.90;93655.63;5062657;28;20096;-76
2023/07/31 10:17:05;;;;;;;3.53;1.92;;;;;;;25.06;43.82;93666.75;5062700;28;20100;-77
2023/07/31 10:19:32;;;;;;;6.28;2.15;;;;;;;25.01;44.61;93655.09;5062434;28;20371;-77
2023/07/31 10:21:58;;;;;;;5.35;2.00;;;;;;;24.90;45.85;93646.28;5062381;28;20304;-77
2023/07/31 10:24:25;;;;;;;7.97;2.20;;;;;;;25.05;45.20;93644.13;5062394;28;20044;-78
2023/07/31 10:26:53;;;;;;;5.88;2.75;;;;;;;25.07;44.78;93644.50;5062356;28;20036;-77
2023/07/31 10:29:19;;;;;;;5.93;1.75;;;;;;;25.03;44.90;93644.56;5062176;28;20021;-77
2023/07/31 10:31:47;;;;;;;6.45;2.25;;;;;;;25.10;43.22;93643.69;5061012;28;20044;-78
2023/07/31 10:34:13;;;;;;;4.30;1.95;;;;;;;25.21;43.03;93662.66;5062217;28;20025;-77
2023/07/31 10:36:39;;;;;;;3.00;1.70;;;;;;;25.22;43.04;93648.59;5062296;28;20048;-77
2023/07/31 10:39:07;;;;;;;2.97;1.38;;;;;;;25.20;42.02;93647.44;5062052;28;20028;-77
2023/07/31 10:41:33;;;;;;;3.15;1.75;;;;;;;25.20;41.70;93634.56;5061178;28;20025;-78
2023/07/31 10:44:01;;;;;;;8.85;2.13;;;;;;;25.26;43.56;93643.09;5062120;28;20054;-77
2023/07/31 10:46:30;;;;;;;4.82;1.88;;;;;;;25.52;42.87;93640.75;5062147;28;20188;-78
2023/07/31 10:49:00;;;;;;;3.05;1.85;;;;;;;25.38;41.52;93636.28;5062152;28;20040;-78
2023/07/31 10:51:36;;;;;;;7.25;1.60;;;;;;;25.31;42.21;93630.94;5062278;28;20274;-76
2023/07/31 10:54:15;;;;;;;9.05;2.00;;;;;;;25.47;42.66;93643.97;5061846;28;20045;-76
2023/07/31 10:56:46;;;;;;;4.13;1.65;;;;;;;25.54;41.64;93632.94;5063711;28;20100;-78
2023/07/31 10:59:12;;;;;;;3.75;1.80;;;;;;;25.46;41.32;93624.06;5066398;28;20100;-77
2023/07/31 11:01:52;;;;;;;14.30;2.88;;;;;;;25.51;41.06;93623.63;5064964;28;20222;-79
2023/07/31 11:04:23;;;;;;;2.70;1.20;;;;;;;25.41;40.57;93614.41;5065794;28;20021;-77
2023/07/31 11:06:57;;;;;;;2.22;1.35;;;;;;;25.52;39.95;93614.22;5064388;28;20114;-76
2023/07/31 11:09:24;;;;;;;3.15;1.95;;;;;;;25.69;40.70;93615.16;5065763;28;20096;-76
2023/07/31 11:11:51;;;;;;;3.88;1.60;;;;;;;25.88;41.01;93618.34;5065767;28;20029;-77
2023/07/31 11:14:17;;;;;;;2.63;1.50;;;;;;;25.83;39.65;93614.91;5065437;28;20040;-77
2023/07/31 11:16:42;;;;;;;3.95;1.50;;;;;;;25.89;38.46;93604.28;5065560;28;20024;-77
2023/07/31 11:19:08;;;;;;;2.33;1.52;;;;;;;25.95;39.34;93607.31;5065897;28;20040;-76
2023/07/31 11:21:34;;;;;;;2.20;1.30;;;;;;;25.96;37.84;93615.09;5065687;28;20316;-77
2023/07/31 11:23:59;;;;;;;3.75;1.23;;;;;;;26.16;38.40;93623.31;5065276;28;20096;-78
2023/07/31 11:26:25;;;;;;;5.13;1.25;;;;;;;26.36;37.79;93601.47;5064180;28;20319;-77
2023/07/31 11:28:51;;;;;;;3.97;1.25;;;;;;;26.55;36.89;93610.84;5065336;28;20032;-77
2023/07/31 11:31:17;;;;;;;2.70;1.42;;;;;;;26.55;37.35;93602.66;5065232;28;20021;-79
2023/07/31 11:33:43;;;;;;;2.85;1.48;;;;;;;26.69;38.26;93609.81;5065337;28;20024;-77
2023/07/31 11:36:20;;;;;;;2.45;1.42;;;;;;;26.72;37.22;93608.22;5065203;28;20031;-77